createdAt,value
2022-11-16T07:18:26.934Z,7.47
2022-11-16T07:21:31.119Z,7.76
2022-11-16T07:24:34.661Z,7.84
2022-11-16T07:27:38.152Z,7.92
2022-11-16T07:30:41.193Z,7.87
2022-11-16T07:33:44.472Z,7.59
2022-11-16T07:36:50.896Z,7.71
2022-11-16T07:39:53.958Z,7.69
2022-11-16T07:42:58.723Z,7.76
2022-11-16T07:49:34.182Z,7.79
2022-11-16T07:52:38.224Z,7.58
2022-11-16T07:55:41.202Z,7.64
2022-11-16T07:58:45.749Z,7.76
2022-11-16T08:01:48.931Z,7.82
2022-11-16T08:04:53.051Z,7.66
2022-11-16T08:07:56.876Z,7.77
2022-11-16T08:11:05.579Z,7.84
2022-11-16T08:14:11.649Z,7.90
2022-11-16T08:17:14.838Z,7.85
2022-11-16T08:20:19.115Z,7.85
2022-11-16T08:23:22.852Z,7.92
2022-11-16T08:26:26.276Z,7.99
2022-11-16T08:29:30.394Z,8.00
2022-11-16T08:32:33.504Z,7.68
2022-11-16T08:35:36.790Z,7.93
2022-11-16T08:38:40.679Z,7.97
2022-11-16T08:41:44.476Z,8.06
2022-11-16T08:44:47.541Z,8.06
2022-11-16T08:48:03.100Z,7.89
2022-11-16T08:51:18.652Z,8.01
2022-11-16T08:54:22.886Z,7.79
2022-11-16T08:57:25.561Z,8.02
2022-11-16T09:00:28.859Z,7.86
2022-11-16T09:03:31.442Z,8.15
2022-11-16T09:06:36.024Z,8.24
2022-11-16T09:09:38.536Z,8.29
2022-11-16T09:12:41.805Z,8.22
2022-11-16T09:15:45.001Z,8.30
2022-11-16T09:18:49.846Z,8.33
2022-11-16T09:21:52.565Z,8.38
2022-11-16T09:24:55.498Z,8.36
2022-11-16T09:27:58.131Z,8.35
2022-11-16T09:31:04.361Z,8.02
2022-11-16T09:34:07.625Z,8.32
2022-11-16T09:37:10.566Z,8.01
2022-11-16T09:40:13.350Z,8.12
2022-11-16T09:43:53.604Z,8.03
2022-11-16T09:46:59.062Z,8.32
2022-11-16T09:50:05.505Z,8.42
2022-11-16T09:53:26.871Z,8.37
2022-11-16T09:56:35.339Z,8.44
2022-11-16T09:59:45.219Z,8.61
2022-11-16T10:02:52.109Z,8.66
2022-11-16T10:06:05.310Z,8.51
2022-11-16T10:09:11.188Z,8.55
2022-11-16T10:12:34.145Z,8.39
2022-11-16T10:16:10.721Z,8.42
2022-11-16T10:19:36.045Z,8.58
2022-11-16T10:22:38.640Z,8.72
2022-11-16T10:25:41.526Z,8.58
2022-11-16T10:28:53.629Z,8.61
2022-11-16T10:32:22.452Z,8.67
2022-11-16T10:35:31.257Z,8.70
2022-11-16T10:38:35.005Z,8.67
2022-11-16T10:41:42.719Z,8.77
2022-11-16T10:44:53.458Z,8.98
2022-11-16T10:48:25.001Z,8.88
2022-11-16T10:51:28.141Z,8.83
2022-11-16T10:54:30.707Z,8.79
2022-11-16T10:58:04.045Z,8.62
2022-11-16T11:01:10.947Z,8.94
2022-11-16T11:04:16.970Z,9.01
2022-11-16T11:07:30.909Z,9.10
2022-11-16T11:10:36.883Z,9.04
2022-11-16T11:13:39.586Z,8.80
2022-11-16T11:16:42.785Z,8.97
2022-11-16T11:19:45.334Z,9.08
2022-11-16T11:22:58.596Z,9.04
2022-11-16T11:26:01.435Z,9.10
2022-11-16T11:29:16.791Z,9.08
2022-11-16T11:32:24.103Z,8.98
2022-11-16T11:35:34.309Z,9.11
2022-11-16T11:39:03.459Z,9.10
2022-11-16T11:42:15.114Z,8.92
2022-11-16T11:45:19.582Z,9.08
2022-11-16T11:48:29.203Z,9.02
2022-11-16T11:51:37.213Z,8.98
2022-11-16T11:54:46.806Z,8.96
2022-11-16T11:57:53.734Z,9.01
2022-11-16T12:01:25.285Z,9.04
2022-11-16T12:05:00.968Z,9.10
2022-11-16T12:08:14.711Z,9.23
2022-11-16T12:11:38.842Z,9.22
2022-11-16T12:14:56.215Z,9.06
2022-11-16T12:17:59.029Z,8.99
2022-11-16T12:21:31.405Z,9.09
2022-11-16T12:24:56.747Z,8.96
2022-11-16T12:28:04.105Z,9.16
2022-11-16T12:31:44.670Z,9.17
2022-11-16T12:34:56.219Z,9.18
2022-11-16T12:38:27.954Z,9.17
2022-11-16T12:41:42.477Z,9.14
2022-11-16T12:45:10.968Z,9.12
2022-11-16T12:48:43.172Z,9.03
2022-11-16T12:52:13.581Z,8.99
2022-11-16T12:55:44.119Z,9.19
2022-11-16T12:59:13.611Z,9.01
2022-11-16T13:02:54.308Z,8.94
2022-11-16T13:06:25.555Z,8.99
2022-11-16T13:09:32.792Z,9.09
2022-11-16T13:12:37.268Z,9.06
2022-11-16T13:15:42.694Z,8.91
2022-11-16T13:18:47.017Z,8.84
2022-11-16T13:22:03.139Z,8.83
2022-11-16T13:25:05.974Z,8.75
2022-11-16T13:28:17.380Z,8.74
2022-11-16T13:31:20.566Z,8.72
2022-11-16T13:34:31.953Z,8.70
2022-11-16T13:37:37.750Z,8.78
2022-11-16T13:40:41.019Z,8.67
2022-11-16T13:43:49.512Z,8.70
2022-11-16T13:46:56.978Z,8.68
2022-11-16T13:50:02.952Z,8.63
2022-11-16T13:56:49.903Z,8.61
2022-11-16T14:00:01.549Z,8.59
2022-11-16T14:03:15.524Z,8.58
2022-11-16T14:06:24.241Z,8.58
2022-11-16T14:09:48.460Z,8.52
2022-11-16T14:12:54.066Z,8.43
2022-11-16T14:16:14.931Z,8.48
2022-11-16T14:19:49.308Z,8.41
2022-11-16T14:23:26.393Z,8.36
2022-11-16T14:26:48.064Z,8.35
2022-11-16T14:30:15.591Z,8.20
2022-11-16T14:33:29.499Z,8.26
2022-11-16T14:36:51.088Z,8.32
2022-11-16T14:40:01.938Z,8.25
2022-11-16T14:43:16.962Z,8.18
2022-11-16T14:46:30.103Z,8.16
2022-11-16T14:49:36.055Z,8.13
2022-11-16T14:52:47.562Z,8.07
2022-11-16T14:55:50.169Z,8.10
2022-11-16T14:58:54.225Z,8.04
2022-11-16T15:01:58.079Z,8.03
2022-11-16T15:05:01.382Z,8.01
2022-11-16T15:08:21.601Z,8.03
2022-11-16T15:11:56.804Z,8.04
2022-11-16T15:15:05.436Z,7.98
2022-11-16T15:18:13.095Z,7.98
2022-11-16T15:21:23.127Z,7.99
2022-11-16T15:24:30.916Z,7.98
2022-11-16T15:27:40.163Z,7.95
2022-11-16T15:30:46.443Z,7.89
2022-11-16T15:33:50.366Z,7.93
2022-11-16T15:36:53.200Z,7.92
2022-11-16T15:39:58.098Z,7.95
2022-11-16T15:43:04.572Z,7.99
2022-11-16T15:46:08.547Z,7.98
2022-11-16T15:49:38.488Z,8.00
2022-11-16T15:52:46.107Z,8.02
2022-11-16T15:55:50.169Z,8.05
2022-11-16T15:58:54.540Z,8.03
2022-11-16T16:01:57.521Z,8.01
2022-11-16T16:05:00.388Z,8.02
2022-11-16T16:08:03.642Z,8.06
2022-11-16T16:11:28.036Z,8.01
2022-11-16T16:14:30.932Z,8.00
2022-11-16T16:17:34.439Z,8.03
2022-11-16T16:20:47.223Z,8.06
2022-11-16T16:23:53.642Z,8.01
2022-11-16T16:26:56.239Z,8.05
2022-11-16T16:30:04.447Z,8.08
2022-11-16T16:33:18.489Z,8.12
2022-11-16T16:36:23.673Z,8.00
2022-11-16T16:39:26.626Z,8.02
2022-11-16T16:42:29.609Z,7.99
2022-11-16T16:45:38.796Z,7.98
2022-11-16T16:48:44.616Z,8.02
2022-11-16T16:51:47.427Z,8.00
2022-11-16T16:54:50.519Z,7.99
2022-11-16T16:57:57.431Z,7.96
2022-11-16T17:01:05.625Z,7.98
2022-11-16T17:04:08.545Z,7.94
2022-11-16T17:07:11.467Z,7.98
2022-11-16T17:10:14.111Z,8.01
2022-11-16T17:13:17.025Z,7.96
2022-11-16T17:16:19.691Z,7.96
2022-11-16T17:19:22.554Z,7.93
2022-11-16T17:22:25.533Z,7.92
2022-11-16T17:25:30.248Z,7.97
2022-11-16T17:28:33.234Z,7.94
2022-11-16T17:31:36.380Z,7.92
2022-11-16T17:34:41.400Z,7.90
2022-11-16T17:37:44.560Z,7.89
2022-11-16T17:40:47.315Z,7.90
2022-11-16T17:43:53.178Z,7.91
2022-11-16T17:46:55.849Z,7.97
2022-11-16T17:49:59.306Z,7.96
2022-11-16T17:53:01.967Z,7.94
2022-11-16T17:56:06.636Z,7.95
2022-11-16T17:59:09.353Z,7.89
2022-11-16T18:02:12.326Z,7.88
2022-11-16T18:05:15.385Z,7.94
2022-11-16T18:08:18.021Z,7.94
2022-11-16T18:11:26.805Z,7.90
2022-11-16T18:14:29.477Z,7.98
2022-11-16T18:17:32.556Z,8.00
2022-11-16T18:20:37.127Z,7.94
2022-11-16T18:23:40.096Z,7.90
2022-11-16T18:26:42.877Z,7.93
2022-11-16T18:29:45.762Z,7.93
2022-11-16T18:32:49.335Z,7.90
2022-11-16T18:35:52.153Z,7.81
2022-11-16T18:38:54.776Z,7.80
2022-11-16T18:41:57.645Z,7.76
2022-11-16T18:45:00.271Z,7.76
2022-11-16T18:48:07.269Z,7.76
2022-11-16T18:51:11.237Z,7.67
2022-11-16T18:54:14.948Z,7.71
2022-11-16T18:57:17.617Z,7.64
2022-11-16T19:00:21.027Z,7.59
2022-11-16T19:03:23.702Z,7.58
2022-11-16T19:06:26.723Z,7.65
2022-11-16T19:09:29.317Z,7.55
2022-11-16T19:12:32.353Z,7.60
2022-11-16T19:15:35.375Z,7.55
2022-11-16T19:18:38.588Z,7.55
2022-11-16T19:21:41.912Z,7.51
2022-11-16T19:24:44.853Z,7.49
2022-11-16T19:27:47.481Z,7.52
2022-11-16T19:30:50.418Z,7.48
2022-11-16T19:33:55.160Z,7.55
2022-11-16T19:36:57.928Z,7.73
2022-11-16T19:40:00.651Z,7.59
2022-11-16T19:43:03.861Z,7.56
2022-11-16T19:46:09.104Z,7.60
2022-11-16T19:49:19.633Z,7.58
2022-11-16T19:52:22.705Z,7.51
2022-11-16T19:55:25.619Z,7.48
2022-11-16T19:58:28.459Z,7.49
2022-11-16T20:01:31.523Z,7.51
2022-11-16T20:04:34.481Z,7.52
2022-11-16T20:07:38.875Z,7.52
2022-11-16T20:10:41.935Z,7.52
2022-11-16T20:13:44.499Z,7.52
2022-11-16T20:16:50.340Z,7.50
2022-11-16T20:19:52.950Z,7.55
2022-11-16T20:22:55.922Z,7.56
2022-11-16T20:25:58.517Z,7.62
2022-11-16T20:29:01.546Z,7.54
2022-11-16T20:32:04.176Z,7.60
2022-11-16T20:35:07.329Z,7.47
2022-11-16T20:38:10.015Z,7.51
2022-11-16T20:41:15.889Z,7.51
2022-11-16T20:44:21.414Z,7.49
2022-11-16T20:47:27.166Z,7.43
2022-11-16T20:50:29.871Z,7.47
2022-11-16T20:53:34.428Z,7.46
2022-11-16T20:56:37.872Z,7.39
2022-11-16T20:59:40.750Z,7.39
2022-11-16T21:02:43.294Z,7.43
2022-11-16T21:05:51.663Z,7.39
2022-11-16T21:08:55.522Z,7.40
2022-11-16T21:12:17.216Z,7.35
2022-11-16T21:15:19.860Z,7.32
2022-11-16T21:18:27.858Z,7.37
2022-11-16T21:21:33.305Z,7.39
2022-11-16T21:24:36.009Z,7.37
2022-11-16T21:27:38.636Z,7.39
2022-11-16T21:30:41.518Z,7.38
2022-11-16T21:33:45.215Z,7.38
2022-11-16T21:36:48.091Z,7.31
2022-11-16T21:39:50.713Z,7.28
2022-11-16T21:42:53.619Z,7.21
2022-11-16T21:46:03.043Z,7.24
2022-11-16T21:49:07.598Z,7.27
2022-11-16T21:52:10.176Z,7.23
2022-11-16T21:55:13.014Z,7.25
2022-11-16T21:58:15.624Z,7.26
2022-11-16T22:01:19.592Z,7.29
2022-11-16T22:04:41.080Z,7.30
2022-11-16T22:07:43.728Z,7.28
2022-11-16T22:10:52.984Z,7.28
2022-11-16T22:13:55.615Z,7.31
2022-11-16T22:16:58.472Z,7.37
2022-11-16T22:20:01.072Z,7.31
2022-11-16T22:23:03.997Z,7.21
2022-11-16T22:26:12.221Z,7.29
2022-11-16T22:29:15.033Z,7.20
2022-11-16T22:32:17.706Z,7.25
2022-11-16T22:35:20.701Z,7.27
2022-11-16T22:38:23.498Z,7.30
2022-11-16T22:41:26.397Z,7.34
2022-11-16T22:44:28.913Z,7.34
2022-11-16T22:47:33.465Z,7.32
2022-11-16T22:50:36.542Z,7.33
2022-11-16T22:53:39.402Z,7.25
2022-11-16T22:56:42.910Z,7.32
2022-11-16T22:59:45.831Z,7.30
2022-11-16T23:02:48.581Z,7.30
2022-11-16T23:05:51.627Z,7.37
2022-11-16T23:08:54.595Z,7.30
2022-11-16T23:12:16.701Z,7.34
2022-11-16T23:15:37.958Z,7.30
2022-11-16T23:18:40.879Z,7.28
2022-11-16T23:22:02.436Z,7.26
2022-11-16T23:25:26.453Z,7.26
2022-11-16T23:28:29.063Z,7.38
2022-11-16T23:31:31.951Z,7.33
2022-11-16T23:34:34.737Z,7.28
2022-11-16T23:37:55.728Z,7.37
2022-11-16T23:40:58.299Z,7.36
2022-11-16T23:44:01.269Z,7.37
2022-11-16T23:47:03.917Z,7.37
2022-11-16T23:50:07.048Z,7.31
2022-11-16T23:53:10.361Z,7.28
2022-11-16T23:56:13.304Z,7.23
2022-11-16T23:59:16.142Z,7.17
